Midnight Wolf — HO7969 — position and weather

sailwx.info

Track history (hours):
 
Tides and Currents Weather Stations Pressure Air Temp Water Temp Dewpoint Dewpoint Depression Visibility Wind Speed Wind Dir Waves Ship Positions

Midnight Wolf

Last reported at 2015-Aug-30 09:33 UTC. Time now 2015-Aug-31 06:53 UTC.
Position N 18°09' W 063°31'.

Length 51 m; draft 4 m.

Type: Cargo ship. MMSI: 351880000.

Date/timePositionNaut miles runAvg speedWind from/ knotsBaromVisibWave heightAir tempDewpointWater temp
2015-Aug-30 09:33N 18°09' W 063°31'10 9.7
2015-Aug-30 08:33N 18°08' W 063°21'10 9.8
2015-Aug-30 07:33N 18°07' W 063°11'6 5.8
2015-Aug-30 06:32N 18°05' W 063°05'0 0.0
2015-Aug-30 05:32N 18°05' W 063°05'0 0.0
2015-Aug-30 04:33N 18°05' W 063°05'0 0.0
2015-Aug-30 03:33N 18°05' W 063°05'7 7.1
2015-Aug-30 02:33N 18°06' W 063°13'9 8.5
2015-Aug-30 01:33N 18°06' W 063°22'85 8.2
2015-Aug-29 15:09N 18°13' W 064°51'  
2015-Aug-27 00:12N 18°18' W 064°39'4 6.5
2015-Aug-26 23:34N 18°21' W 064°38'3 0.5
2015-Aug-26 16:33N 18°25' W 064°36'0 0.0
2015-Aug-26 12:03N 18°25' W 064°36'63 9.6
2015-Aug-26 05:29N 18°10' W 063°32'9 9.5
2015-Aug-26 04:33N 18°08' W 063°23'10 9.7
2015-Aug-26 03:33N 18°06' W 063°13'7 7.3
2015-Aug-26 02:33N 18°05' W 063°05'0 0.0
2015-Aug-26 01:33N 18°05' W 063°05'0 0.0
2015-Aug-26 00:32N 18°05' W 063°05'5 5.2
2015-Aug-25 23:32N 18°02' W 063°09'9 9.5
2015-Aug-25 22:33N 17°53' W 063°07'14 0.7
2015-Aug-25 00:24N 17°38' W 063°07'6 6.9
2015-Aug-24 23:32N 17°41' W 063°13'15 7.2
2015-Aug-24 21:26N 17°48' W 063°27'7 7.7
2015-Aug-24 20:33N 17°52' W 063°33'64 7.9
2015-Aug-24 12:26N 18°22' W 064°33'5 4.4
2015-Aug-24 11:25N 18°25' W 064°36'0 0.0
2015-Aug-24 10:19N 18°24' W 064°36'0 0.0
2015-Aug-24 09:19N 18°25' W 064°36'0 0.0
2015-Aug-24 08:31N 18°25' W 064°36'0 0.1
2015-Aug-24 07:22N 18°25' W 064°36'7 8.7
2015-Aug-24 06:32N 18°18' W 064°41'8 8.2
2015-Aug-24 05:33N 18°17' W 064°49'4 0.2
2015-Aug-23 10:27N 18°17' W 064°53'7210.1
2015-Aug-23 03:19N 18°09' W 063°37'7 9.6
2015-Aug-23 02:33N 18°08' W 063°30'1010.0
2015-Aug-23 01:33N 18°07' W 063°19'1010.0
2015-Aug-23 00:33N 18°06' W 063°09'4 3.6
2015-Aug-22 23:33N 18°05' W 063°05'0 0.0
2015-Aug-22 22:33N 18°05' W 063°05'0 0.0
2015-Aug-22 21:34N 18°05' W 063°05'3 2.7
2015-Aug-22 20:33N 18°06' W 063°08'9 8.8
2015-Aug-22 19:33N 18°07' W 063°17'9 8.9
2015-Aug-22 18:32N 18°09' W 063°26'66 8.3
2015-Aug-22 10:33N 18°23' W 064°34'3 0.9
2015-Aug-22 07:24N 18°25' W 064°36'7 8.1
2015-Aug-22 06:34N 18°22' W 064°43'9 8.6
2015-Aug-22 05:34N 18°25' W 064°52'1 0.0
2015-Aug-21 02:33N 18°25' W 064°51'1110.7
2015-Aug-21 01:33N 18°22' W 064°40'  
Track history (hours):
 
Tides and Currents Weather Stations Pressure Air Temp Water Temp Dewpoint Dewpoint Depression Visibility Wind Speed Wind Dir Waves Ship Positions

Midnight Wolf

Last reported at 2015-Aug-30 09:33 UTC. Time now 2015-Aug-31 06:53 UTC.
Position N 18°09' W 063°31'.

Length 51 m; draft 4 m.

Type: Cargo ship. MMSI: 351880000.

Date/timePositionNaut miles runAvg speedWind from/ knotsBaromVisibWave heightAir tempDewpointWater temp
2015-Aug-30 09:33N 18°09' W 063°31'10 9.7
2015-Aug-30 08:33N 18°08' W 063°21'10 9.8
2015-Aug-30 07:33N 18°07' W 063°11'6 5.8
2015-Aug-30 06:32N 18°05' W 063°05'0 0.0
2015-Aug-30 05:32N 18°05' W 063°05'0 0.0
2015-Aug-30 04:33N 18°05' W 063°05'0 0.0
2015-Aug-30 03:33N 18°05' W 063°05'7 7.1
2015-Aug-30 02:33N 18°06' W 063°13'9 8.5
2015-Aug-30 01:33N 18°06' W 063°22'85 8.2
2015-Aug-29 15:09N 18°13' W 064°51'  
2015-Aug-27 00:12N 18°18' W 064°39'4 6.5
2015-Aug-26 23:34N 18°21' W 064°38'3 0.5
2015-Aug-26 16:33N 18°25' W 064°36'0 0.0
2015-Aug-26 12:03N 18°25' W 064°36'63 9.6
2015-Aug-26 05:29N 18°10' W 063°32'9 9.5
2015-Aug-26 04:33N 18°08' W 063°23'10 9.7
2015-Aug-26 03:33N 18°06' W 063°13'7 7.3
2015-Aug-26 02:33N 18°05' W 063°05'0 0.0
2015-Aug-26 01:33N 18°05' W 063°05'0 0.0
2015-Aug-26 00:32N 18°05' W 063°05'5 5.2
2015-Aug-25 23:32N 18°02' W 063°09'9 9.5
2015-Aug-25 22:33N 17°53' W 063°07'14 0.7
2015-Aug-25 00:24N 17°38' W 063°07'6 6.9
2015-Aug-24 23:32N 17°41' W 063°13'15 7.2
2015-Aug-24 21:26N 17°48' W 063°27'7 7.7
2015-Aug-24 20:33N 17°52' W 063°33'64 7.9
2015-Aug-24 12:26N 18°22' W 064°33'5 4.4
2015-Aug-24 11:25N 18°25' W 064°36'0 0.0
2015-Aug-24 10:19N 18°24' W 064°36'0 0.0
2015-Aug-24 09:19N 18°25' W 064°36'0 0.0
2015-Aug-24 08:31N 18°25' W 064°36'0 0.1
2015-Aug-24 07:22N 18°25' W 064°36'7 8.7
2015-Aug-24 06:32N 18°18' W 064°41'8 8.2
2015-Aug-24 05:33N 18°17' W 064°49'4 0.2
2015-Aug-23 10:27N 18°17' W 064°53'7210.1
2015-Aug-23 03:19N 18°09' W 063°37'7 9.6
2015-Aug-23 02:33N 18°08' W 063°30'1010.0
2015-Aug-23 01:33N 18°07' W 063°19'1010.0
2015-Aug-23 00:33N 18°06' W 063°09'4 3.6
2015-Aug-22 23:33N 18°05' W 063°05'0 0.0
2015-Aug-22 22:33N 18°05' W 063°05'0 0.0
2015-Aug-22 21:34N 18°05' W 063°05'3 2.7
2015-Aug-22 20:33N 18°06' W 063°08'9 8.8
2015-Aug-22 19:33N 18°07' W 063°17'9 8.9
2015-Aug-22 18:32N 18°09' W 063°26'66 8.3
2015-Aug-22 10:33N 18°23' W 064°34'3 0.9
2015-Aug-22 07:24N 18°25' W 064°36'7 8.1
2015-Aug-22 06:34N 18°22' W 064°43'9 8.6
2015-Aug-22 05:34N 18°25' W 064°52'1 0.0
2015-Aug-21 02:33N 18°25' W 064°51'1110.7
2015-Aug-21 01:33N 18°22' W 064°40'  

Dump ship's entire track history